WetterOnline ( https://www.wetteronline.ch )

Wetter aktuell Helgoland

Aktuelles Wetter: Helgoland/Düne (8m)

6-stündlich | Neueste Meldungen
Ortszeit Temperatur Wetter
Do, 27.02. 19:00 4.8° C bedeckt
Do, 27.02. 13:00 4.4° C bedeckt
Do, 27.02. 7:00 3.8° C Sprühregen
Do, 27.02. 1:00 4.6° C Sprühregen
Mi, 26.02. 19:00 3.8° C wolkig
Mi, 26.02. 13:00 6.1° C leicht bewölkt
Mi, 26.02. 7:00 3.0° C Sprühregen
Mi, 26.02. 1:00 4.3° C Sprühregen
Ortszeit Temperatur Wetter
Do, 27.02. 20:40 3.8° C Sprühregen
Do, 27.02. 20:30 3.9° C bewölkt
Do, 27.02. 20:20 3.9° C bewölkt
Do, 27.02. 20:10 3.8° C Sprühregen
Do, 27.02. 20:00 3.7° C leichter Regen
Do, 27.02. 19:50 3.7° C leichter Regen
Do, 27.02. 19:30 4.4° C leichter Regen
Do, 27.02. 19:00 4.8° C bedeckt
Do, 27.02. 18:30 4.6° C bewölkt
Do, 27.02. 18:00 4.5° C bedeckt
Do, 27.02. 17:30 4.5° C bedeckt
Ortszeit Relative Feuchte Sichtweite
Do, 27.02. 19:00 79% 28 km
Do, 27.02. 13:00 84% 18 km
Do, 27.02. 7:00 83% 14 km
Do, 27.02. 1:00 83% 26 km
Mi, 26.02. 19:00 81% 60 km
Mi, 26.02. 13:00 68% -
Mi, 26.02. 7:00 89% -
Mi, 26.02. 1:00 85% -
Ortszeit Relative Feuchte Sichtweite
Do, 27.02. 20:40 85% -
Do, 27.02. 20:30 80% 45 km
Do, 27.02. 20:20 80% -
Do, 27.02. 20:10 81% -
Do, 27.02. 20:00 88% 28 km
Do, 27.02. 19:50 88% -
Do, 27.02. 19:30 81% 35 km
Do, 27.02. 19:00 79% 28 km
Do, 27.02. 18:30 79% 26 km
Do, 27.02. 18:00 79% 24 km
Do, 27.02. 17:30 81% 20 km
Ortszeit Niederschlagsmenge Niederschlagsart
Do, 27.02. 19:00 0.1 l/m2 in 12 Std. -
Do, 27.02. 13:00 0.1 l/m2 in 6 Std. Regen
Do, 27.02. 7:00 2 l/m2 in 12 Std. Schnee, Regen
Do, 27.02. 1:00 2 l/m2 in 6 Std. Regenschauer
Mi, 26.02. 19:00 0.1 l/m2 in 12 Std. Regen
Mi, 26.02. 13:00 0.1 l/m2 in 6 Std. -
Mi, 26.02. 7:00 2 l/m2 in 12 Std. -
Mi, 26.02. 1:00 0.8 l/m2 in 6 Std. -
Ortszeit Niederschlagsmenge Niederschlagsart
Do, 27.02. 20:40 keine Meldung -
Do, 27.02. 20:30 0.1 l/m2 in 1 Std. Schneeregen
Do, 27.02. 20:20 keine Meldung -
Do, 27.02. 20:10 keine Meldung -
Do, 27.02. 20:00 0.1 l/m2 in 1 Std. Regen
Do, 27.02. 19:50 keine Meldung -
Do, 27.02. 19:30 0.1 l/m2 in 1 Std. -
Do, 27.02. 19:00 0.0 l/m2 in 1 Std. -
Do, 27.02. 18:30 0.0 l/m2 in 1 Std. -
Do, 27.02. 18:00 0.0 l/m2 in 1 Std. -
Do, 27.02. 17:30 0.0 l/m2 in 1 Std. -
Ortszeit Stärke Spitze Richtung
km/h Bft. km/h Grad Sektor
Do, 27.02. 19:00 14 3 36 240° SW
Do, 27.02. 13:00 22 4 47 220° SW
Do, 27.02. 7:00 22 4 47 250° W
Do, 27.02. 1:00 29 5 40 280° W
Mi, 26.02. 19:00 13 3 41 340° N
Mi, 26.02. 13:00 22 4 32 300° NW
Mi, 26.02. 7:00 13 3 41 320° NW
Mi, 26.02. 1:00 20 4 50 280° W
Ortszeit Stärke Spitze Richtung
km/h Bft. km/h Grad Sektor
Do, 27.02. 20:40 18 3 - 250° W
Do, 27.02. 20:30 20 4 31 250° W
Do, 27.02. 20:20 20 4 - 250° W
Do, 27.02. 20:10 22 4 - 260° W
Do, 27.02. 20:00 24 4 33 270° W
Do, 27.02. 19:50 24 4 - 270° W
Do, 27.02. 19:30 17 3 24 280° W
Do, 27.02. 19:00 14 3 25 240° SW
Do, 27.02. 18:30 17 3 22 240° SW
Do, 27.02. 18:00 14 3 22 240° SW
Do, 27.02. 17:30 11 2 22 220° SW
Ortszeit Untergrenze Bedeckung Gattung
total tief tief mittel hoch
Do, 27.02. 19:00 540 m 8/8 8/8 - - -
Do, 27.02. 13:00 3000 m 8/8 8/8 - - -
Do, 27.02. 7:00 480 m 5/8 4/8 - - -
Do, 27.02. 1:00 420 m 3/8 3/8 - - -
Mi, 26.02. 19:00 540 m 5/8 5/8 - - -
Mi, 26.02. 13:00 750 m 4/8 4/8 - - -
Mi, 26.02. 7:00 480 m 5/8 5/8 - - -
Mi, 26.02. 1:00 - 0/8 0/8 - - -
Ortszeit Bedeckungsgrad in Achtel und Wolkenuntergrenze
Do, 27.02. 20:40 4(480m) 6(1170m) 8(1470m)
Do, 27.02. 20:30 1(420m) 4(1230m) 7(1500m)
Do, 27.02. 20:20 1(420m) 4(1230m) 7(1500m)
Do, 27.02. 20:10 1(390m) 4(1170m) 7(1500m)
Do, 27.02. 20:00 4(420m) 7(1230m) 8(1470m)
Do, 27.02. 19:50 4(420m) 7(1230m) 8(1470m)
Do, 27.02. 19:30 7(510m) 7(840m) 8(2100m)
Do, 27.02. 19:00 2(540m) 7(780m) 8(2700m)
Do, 27.02. 18:30 3(600m) 4(750m) 7(900m)
Do, 27.02. 18:00 3(600m) 8(870m) 8(2100m)
Do, 27.02. 17:30 7(660m) 8(2100m) 8(3000m)
Ortszeit Luftdruck NN (hPa) Tendenz (hPa in 3 Std.)
Do, 27.02. 19:00 998 + 1,7
Do, 27.02. 13:00 998 - 1,5
Do, 27.02. 7:00 1000 - 0,2
Do, 27.02. 1:00 1000 + 0,1
Mi, 26.02. 19:00 999 + 2,8
Mi, 26.02. 13:00 994 + 2,2
Mi, 26.02. 7:00 990 + 0,5
Mi, 26.02. 1:00 990 - 0,6
Ortszeit Luftdruck NN (hPa) Tendenz (hPa in 3 Std.)
Do, 27.02. 20:40 1000 keine Meldung
Do, 27.02. 20:30 1000 + 2,4
Do, 27.02. 20:20 1000 keine Meldung
Do, 27.02. 20:10 1000 keine Meldung
Do, 27.02. 20:00 999 + 2,3
Do, 27.02. 19:50 999 keine Meldung
Do, 27.02. 19:30 999 + 2,1
Do, 27.02. 19:00 998 + 1,7
Do, 27.02. 18:30 998 + 1,3
Do, 27.02. 18:00 998 + 0,9
Do, 27.02. 17:30 997 + 0,4
Ortszeit Schneehöhe (cm)
Do, 27.02. 19:00 0
Do, 27.02. 13:00 0
Do, 27.02. 7:00 0
Do, 27.02. 1:00 0
Mi, 26.02. 19:00 0
Mi, 26.02. 13:00 0
Mi, 26.02. 7:00 0
Mi, 26.02. 1:00 0
Ortszeit Schneehöhe (cm)
Do, 27.02. 20:40 0
Do, 27.02. 20:30 0
Do, 27.02. 20:20 0
Do, 27.02. 20:10 0
Do, 27.02. 20:00 0
Do, 27.02. 19:50 0
Do, 27.02. 19:30 0
Do, 27.02. 19:00 0
Do, 27.02. 18:30 0
Do, 27.02. 18:00 0
Do, 27.02. 17:30 0
Link zu dieser Seite / Seite empfehlen

Das Wetter in ...